Map

Track Data

SID SEASON NUMBER BASIN SUBBASIN NAME ISO_TIME NATURE LAT LON WMO_WIND WMO_PRES WMO_AGENCY TRACK_TYPE DIST2LAND LANDFALL IFLAG USA_AGENCY USA_ATCF_ID USA_LAT USA_LON USA_RECORD USA_STATUS USA_WIND USA_PRES USA_SSHS USA_R34_NE USA_R34_SE USA_R34_SW USA_R34_NW USA_R50_NE USA_R50_SE USA_R50_SW USA_R50_NW USA_R64_NE USA_R64_SE USA_R64_SW USA_R64_NW USA_POCI USA_ROCI USA_RMW USA_EYE TOKYO_LAT TOKYO_LON TOKYO_GRADE TOKYO_WIND TOKYO_PRES TOKYO_R50_DIR TOKYO_R50_LONG TOKYO_R50_SHORT TOKYO_R30_DIR TOKYO_R30_LONG TOKYO_R30_SHORT TOKYO_LAND CMA_LAT CMA_LON CMA_CAT CMA_WIND CMA_PRES HKO_LAT HKO_LON HKO_CAT HKO_WIND HKO_PRES NEWDELHI_LAT NEWDELHI_LON NEWDELHI_GRADE NEWDELHI_WIND NEWDELHI_PRES NEWDELHI_CI NEWDELHI_DP NEWDELHI_POCI REUNION_LAT REUNION_LON REUNION_TYPE REUNION_WIND REUNION_PRES REUNION_TNUM REUNION_CI REUNION_RMW REUNION_R34_NE REUNION_R34_SE REUNION_R34_SW REUNION_R34_NW REUNION_R50_NE REUNION_R50_SE REUNION_R50_SW REUNION_R50_NW REUNION_R64_NE REUNION_R64_SE REUNION_R64_SW REUNION_R64_NW BOM_LAT BOM_LON BOM_TYPE BOM_WIND BOM_PRES BOM_TNUM BOM_CI BOM_RMW BOM_R34_NE BOM_R34_SE BOM_R34_SW BOM_R34_NW BOM_R50_NE BOM_R50_SE BOM_R50_SW BOM_R50_NW BOM_R64_NE BOM_R64_SE BOM_R64_SW BOM_R64_NW BOM_ROCI BOM_POCI BOM_EYE BOM_POS_METHOD BOM_PRES_METHOD NADI_LAT NADI_LON NADI_CAT NADI_WIND NADI_PRES WELLINGTON_LAT WELLINGTON_LON WELLINGTON_WIND WELLINGTON_PRES DS824_LAT DS824_LON DS824_STAGE DS824_WIND DS824_PRES TD9636_LAT TD9636_LON TD9636_STAGE TD9636_WIND TD9636_PRES TD9635_LAT TD9635_LON TD9635_WIND TD9635_PRES TD9635_ROCI NEUMANN_LAT NEUMANN_LON NEUMANN_CLASS NEUMANN_WIND NEUMANN_PRES MLC_LAT MLC_LON MLC_CLASS MLC_WIND MLC_PRES USA_GUST BOM_GUST BOM_GUST_PER REUNION_GUST REUNION_GUST_PER USA_SEAHGT USA_SEARAD_NE USA_SEARAD_SE USA_SEARAD_SW USA_SEARAD_NW STORM_SPEED STORM_DIR
1919161N12126 1919 12 WP MM NOT_NAMED 1919-06-09 22:00:00 NR 12.2000 125.500 main 0 0 __________O___ -1 12.2000 125.500 2 10 306
1919161N12126 1919 12 WP MM NOT_NAMED 1919-06-10 00:00:00 NR 12.4011 125.216 main 0 0 __________P___ -1 12.4011 125.216 2 10 306
1919161N12126 1919 12 WP MM NOT_NAMED 1919-06-10 03:00:00 NR 12.6958 124.791 main 24 24 __________P___ -1 12.6958 124.791 2 10 305
1919161N12126 1919 12 WP MM NOT_NAMED 1919-06-10 06:00:00 NR 12.9734 124.365 main 32 0 __________P___ -1 12.9734 124.365 2 10 303
1919161N12126 1919 12 WP MM NOT_NAMED 1919-06-10 09:00:00 NR 13.2241 123.941 main 0 0 __________P___ -1 13.2241 123.941 2 10 301
1919161N12126 1919 12 WP MM NOT_NAMED 1919-06-10 10:00:00 NR 13.3000 123.800 main 0 0 __________O___ -1 13.3000 123.800 2 9 298
1919161N12126 1919 12 WP MM NOT_NAMED 1919-06-10 12:00:00 NR 13.4397 123.518 main 0 0 __________P___ -1 13.4397 123.518 2 9 296
1919161N12126 1919 12 WP MM NOT_NAMED 1919-06-10 15:00:00 NR 13.6301 123.090 main 0 0 __________P___ -1 13.6301 123.090 2 9 294
1919161N12126 1919 12 WP MM NOT_NAMED 1919-06-10 18:00:00 NR 13.8174 122.644 main 10 0 __________P___ -1 13.8174 122.644 2 10 294
1919161N12126 1919 12 WP MM NOT_NAMED 1919-06-10 21:00:00 NR 14.0234 122.168 main 10 10 __________P___ -1 14.0234 122.168 2 10 294
1919161N12126 1919 12 WP MM NOT_NAMED 1919-06-10 22:00:00 NR 14.1000 122.000 main 15 0 __________O___ -1 14.1000 122.000 2 12 296
1919161N12126 1919 12 WP MM NOT_NAMED 1919-06-11 00:00:00 NR 14.2748 121.630 main 0 0 __________P___ -1 14.2748 121.630 2 12 296
1919161N12126 1919 12 WP MM NOT_NAMED 1919-06-11 03:00:00 NR 14.5621 121.042 main 0 0 __________P___ -1 14.5621 121.042 2 13 297
1919161N12126 1919 12 WP MM NOT_NAMED 1919-06-11 06:00:00 NR 14.8709 120.447 main 0 0 __________P___ -1 14.8709 120.447 2 13 299
1919161N12126 1919 12 WP MM NOT_NAMED 1919-06-11 09:00:00 NR 15.1919 119.878 main 15 15 __________P___ -1 15.1919 119.878 2 13 301
1919161N12126 1919 12 WP MM NOT_NAMED 1919-06-11 10:00:00 NR 15.3000 119.700 main 24 24 __________O___ -1 15.3000 119.700 2 11 303
1919161N12126 1919 12 WP MM NOT_NAMED 1919-06-11 12:00:00 NR 15.5000 119.379 main 54 54 __________P___ -1 15.5000 119.379 2 11 305
1919161N12126 1919 12 WP MM NOT_NAMED 1919-06-11 15:00:00 NR 15.8064 118.936 main 88 86 __________P___ -1 15.8064 118.936 2 10 307
1919161N12126 1919 12 WP MM NOT_NAMED 1919-06-11 18:00:00 NR 16.1290 118.525 main 128 128 __________P___ -1 16.1290 118.525 2 10 311
1919161N12126 1919 12 WP MM NOT_NAMED 1919-06-11 21:00:00 NR 16.4768 118.131 main 179 179 __________P___ -1 16.4768 118.131 2 10 313
1919161N12126 1919 12 WP MM NOT_NAMED 1919-06-11 22:00:00 NR 16.6000 118.000 main 193 193 __________O___ -1 16.6000 118.000 2 11 315
1919161N12126 1919 12 WP MM NOT_NAMED 1919-06-12 00:00:00 NR 16.8549 117.738 main 233 233 __________P___ -1 16.8549 117.738 2 11 317
1919161N12126 1919 12 WP MM NOT_NAMED 1919-06-12 03:00:00 NR 17.2625 117.351 main 278 288 __________P___ -1 17.2625 117.351 2 11 318
1919161N12126 1919 12 WP MM NOT_NAMED 1919-06-12 06:00:00 NR 17.6951 116.958 main 336 345 __________P___ -1 17.6951 116.958 2 12 319
1919161N12126 1919 12 WP MM NOT_NAMED 1919-06-12 09:00:00 NR 18.1465 116.545 main 404 407 __________P___ -1 18.1465 116.545 2 12 319
1919161N12126 1919 12 WP MM NOT_NAMED 1919-06-12 10:00:00 NR 18.3000 116.400 main 419 419 __________O___ -1 18.3000 116.400 2 13 316
1919161N12126 1919 12 WP MM NOT_NAMED 1919-06-12 12:00:00 NR 18.6160 116.069 main 453 378 __________P___ -1 18.6160 116.069 2 14 315
1919161N12126 1919 12 WP MM NOT_NAMED 1919-06-12 15:00:00 NR 19.1029 115.547 main 378 310 __________P___ -1 19.1029 115.547 2 14 315
1919161N12126 1919 12 WP MM NOT_NAMED 1919-06-12 18:00:00 NR 19.5881 115.026 main 310 246 __________P___ -1 19.5881 115.026 2 13 315
1919161N12126 1919 12 WP MM NOT_NAMED 1919-06-12 21:00:00 NR 20.0528 114.545 main 246 235 __________P___ -1 20.0528 114.545 2 13 316
1919161N12126 1919 12 WP MM NOT_NAMED 1919-06-12 22:00:00 NR 20.2000 114.400 main 235 199 __________O___ -1 20.2000 114.400 2 11 318
1919161N12126 1919 12 WP MM NOT_NAMED 1919-06-13 00:00:00 NR 20.4617 114.156 main 199 148 __________P___ -1 20.4617 114.156 2 10 320
1919161N12126 1919 12 WP MM NOT_NAMED 1919-06-13 03:00:00 NR 20.8293 113.841 main 148 99 __________P___ -1 20.8293 113.841 2 9 323
1919161N12126 1919 12 WP MM NOT_NAMED 1919-06-13 06:00:00 NR 21.1892 113.562 main 99 45 __________P___ -1 21.1892 113.562 2 9 325
1919161N12126 1919 12 WP MM NOT_NAMED 1919-06-13 09:00:00 NR 21.5663 113.293 main 45 30 __________P___ -1 21.5663 113.293 2 9 326
1919161N12126 1919 12 WP MM NOT_NAMED 1919-06-13 10:00:00 NR 21.7000 113.200 main 30 0 __________O___ -1 21.7000 113.200 2 10 327
1919161N12126 1919 12 WP MM NOT_NAMED 1919-06-13 12:00:00 NR 21.9832 113.005 main 0 0 __________P___ -1 21.9832 113.005 2 11 328
1919161N12126 1919 12 WP MM NOT_NAMED 1919-06-13 15:00:00 NR 22.4413 112.692 main 0 0 __________P___ -1 22.4413 112.692 2 11 328
1919161N12126 1919 12 WP MM NOT_NAMED 1919-06-13 18:00:00 NR 22.9282 112.360 main 0 0 __________P___ -1 22.9282 112.360 2 12 328
1919161N12126 1919 12 WP MM NOT_NAMED 1919-06-13 21:00:00 NR 23.4310 112.016 main 0 0 __________P___ -1 23.4310 112.016 2 12 328
1919161N12126 1919 12 WP MM NOT_NAMED 1919-06-13 22:00:00 NR 23.6000 111.900 main 0 __________O___ -1 23.6000 111.900 7 12 329

Digital Typhoon Data and Search

About IBTrACS Database

This database is a web-friendly format of International Best Track Archive for Climate Stewardship (IBTrACS), a global best track data archive curated by NOAA dating back to 1842.

Updated: 2021-10-21